createdAt,value
2019-02-27T00:01:01.612Z,4.00
2019-02-27T00:03:34.996Z,3.95
2019-02-27T00:06:06.799Z,4.02
2019-02-27T00:08:38.470Z,4.07
2019-02-27T00:11:12.364Z,4.09
2019-02-27T00:13:43.575Z,4.08
2019-02-27T00:16:15.257Z,4.06
2019-02-27T00:18:46.922Z,4.09
2019-02-27T00:21:18.616Z,3.99
2019-02-27T00:23:50.289Z,3.91
2019-02-27T00:26:22.010Z,3.80
2019-02-27T00:28:55.970Z,3.70
2019-02-27T00:31:27.306Z,3.65
2019-02-27T00:33:59.820Z,3.55
2019-02-27T00:36:33.233Z,3.53
2019-02-27T00:39:05.819Z,3.52
2019-02-27T00:41:39.033Z,3.43
2019-02-27T00:44:10.714Z,3.40
2019-02-27T00:46:43.958Z,3.50
2019-02-27T00:49:16.666Z,3.47
2019-02-27T00:51:48.340Z,3.38
2019-02-27T00:54:20.018Z,3.46
2019-02-27T00:56:51.695Z,3.41
2019-02-27T00:59:23.301Z,3.25
2019-02-27T01:01:55.164Z,3.09
2019-02-27T01:04:28.310Z,3.05
2019-02-27T01:07:00.009Z,3.10
2019-02-27T01:09:31.921Z,3.07
2019-02-27T01:12:03.548Z,3.12
2019-02-27T01:14:37.183Z,3.16
2019-02-27T01:17:08.635Z,3.14
2019-02-27T01:19:42.542Z,3.08
2019-02-27T01:22:13.575Z,3.02
2019-02-27T01:24:45.314Z,2.94
2019-02-27T01:27:17.051Z,2.88
2019-02-27T01:29:50.886Z,2.69
2019-02-27T01:32:21.985Z,2.72
2019-02-27T01:34:53.586Z,2.69
2019-02-27T01:37:25.221Z,2.69
2019-02-27T01:39:56.983Z,2.68
2019-02-27T01:42:31.861Z,2.63
2019-02-27T01:45:02.222Z,2.56
2019-02-27T01:47:36.120Z,2.44
2019-02-27T01:50:28.178Z,2.49
2019-02-27T01:53:00.010Z,2.49
2019-02-27T01:55:31.943Z,2.41
2019-02-27T01:58:03.627Z,2.45
2019-02-27T02:00:35.255Z,2.44
2019-02-27T02:03:06.943Z,2.40
2019-02-27T02:05:38.619Z,2.35
2019-02-27T02:08:13.638Z,2.32
2019-02-27T02:10:43.697Z,2.37
2019-02-27T02:13:31.479Z,2.37
2019-02-27T02:16:34.155Z,2.31
2019-02-27T02:19:43.780Z,2.34
2019-02-27T02:22:41.273Z,2.32
2019-02-27T02:26:01.347Z,2.33
2019-02-27T02:29:21.068Z,2.35
2019-02-27T02:32:03.606Z,2.20
2019-02-27T02:35:07.574Z,2.17
2019-02-27T02:38:17.716Z,2.11
2019-02-27T02:41:16.932Z,2.09
2019-02-27T02:44:31.068Z,2.09
2019-02-27T02:47:35.917Z,2.02
2019-02-27T02:50:44.296Z,1.92
2019-02-27T02:53:43.130Z,1.79
2019-02-27T02:56:49.793Z,1.84
2019-02-27T02:59:52.413Z,1.73
2019-02-27T03:02:50.530Z,1.71
2019-02-27T03:06:02.258Z,1.73
2019-02-27T03:08:59.044Z,1.67
2019-02-27T03:11:55.824Z,1.72
2019-02-27T03:14:38.975Z,1.81
2019-02-27T03:17:53.579Z,1.88
2019-02-27T03:20:55.800Z,1.77
2019-02-27T03:23:50.839Z,1.72
2019-02-27T03:27:12.362Z,1.71
2019-02-27T03:30:34.242Z,1.72
2019-02-27T03:33:11.236Z,1.71
2019-02-27T03:36:28.770Z,1.76
2019-02-27T03:39:28.127Z,1.75
2019-02-27T03:42:34.136Z,1.65
2019-02-27T03:45:34.883Z,1.58
2019-02-27T03:48:44.228Z,1.59
2019-02-27T03:52:08.797Z,1.59
2019-02-27T03:55:09.122Z,1.53
2019-02-27T03:58:00.334Z,1.57
2019-02-27T04:00:53.945Z,1.60
2019-02-27T04:04:14.407Z,1.49
2019-02-27T04:07:24.325Z,1.47
2019-02-27T04:09:56.428Z,1.46
2019-02-27T04:12:28.241Z,1.55
2019-02-27T04:15:00.055Z,1.56
2019-02-27T04:17:30.313Z,1.44
2019-02-27T04:20:02.012Z,1.37
2019-02-27T04:22:36.816Z,1.30
2019-02-27T04:25:07.402Z,1.15
2019-02-27T04:27:39.025Z,1.17
2019-02-27T04:30:14.792Z,1.08
2019-02-27T04:32:47.739Z,1.08
2019-02-27T04:35:17.431Z,1.06
2019-02-27T04:37:54.116Z,0.97
2019-02-27T04:40:23.600Z,0.88
2019-02-27T04:42:57.072Z,0.89
2019-02-27T04:45:28.847Z,1.01
2019-02-27T04:48:00.526Z,1.02
2019-02-27T04:50:32.238Z,1.08
2019-02-27T04:53:03.860Z,1.04
2019-02-27T04:55:35.483Z,1.06
2019-02-27T04:58:09.106Z,1.04
2019-02-27T05:00:40.425Z,0.84
2019-02-27T05:03:12.096Z,0.84
2019-02-27T05:05:45.218Z,0.79
2019-02-27T05:08:17.186Z,0.82
2019-02-27T05:10:49.078Z,0.83
2019-02-27T05:13:21.453Z,0.82
2019-02-27T05:15:53.117Z,0.88
2019-02-27T05:18:29.301Z,0.84
2019-02-27T05:20:58.126Z,0.81
2019-02-27T05:23:30.912Z,0.72
2019-02-27T05:26:03.545Z,0.71
2019-02-27T05:28:35.623Z,0.77
2019-02-27T05:31:07.258Z,0.80
2019-02-27T05:33:39.887Z,0.86
2019-02-27T05:36:11.603Z,0.84
2019-02-27T05:38:43.532Z,0.73
2019-02-27T05:41:15.882Z,0.72
2019-02-27T05:43:48.470Z,0.74
2019-02-27T05:46:20.330Z,0.72
2019-02-27T05:48:53.359Z,0.66
2019-02-27T05:51:25.240Z,0.49
2019-02-27T05:53:58.506Z,0.49
2019-02-27T05:56:30.737Z,0.45
2019-02-27T05:59:02.356Z,0.43
2019-02-27T06:01:37.807Z,0.44
2019-02-27T06:04:07.273Z,0.39
2019-02-27T06:06:38.894Z,0.21
2019-02-27T06:09:10.988Z,0.23
2019-02-27T06:11:42.594Z,0.24
2019-02-27T06:14:14.348Z,0.22
2019-02-27T06:16:45.988Z,0.21
2019-02-27T06:19:17.669Z,0.17
2019-02-27T06:21:49.289Z,0.27
2019-02-27T06:24:20.889Z,0.23
2019-02-27T06:26:52.503Z,0.11
2019-02-27T06:29:24.197Z,0.22
2019-02-27T06:31:56.174Z,0.26
2019-02-27T06:34:28.075Z,0.04
2019-02-27T06:37:00.013Z,0.04
2019-02-27T06:39:34.224Z,0.04
2019-02-27T06:42:05.341Z,0.11
2019-02-27T06:44:39.252Z,0.16
2019-02-27T06:47:10.321Z,0.05
2019-02-27T06:49:41.932Z,0.12
2019-02-27T06:52:13.623Z,0.13
2019-02-27T06:54:45.227Z,0.21
2019-02-27T06:57:16.938Z,0.33
2019-02-27T06:59:48.558Z,0.38
2019-02-27T07:02:21.680Z,0.43
2019-02-27T07:04:53.546Z,0.32
2019-02-27T07:07:25.226Z,0.34
2019-02-27T07:09:57.092Z,0.44
2019-02-27T07:12:29.050Z,0.42
2019-02-27T07:15:00.662Z,0.42
2019-02-27T07:17:32.497Z,0.41
2019-02-27T07:20:04.186Z,0.40
2019-02-27T07:22:35.878Z,0.43
2019-02-27T07:25:07.918Z,0.44
2019-02-27T07:27:39.615Z,0.54
2019-02-27T07:30:13.987Z,0.62
2019-02-27T07:32:45.929Z,0.66
2019-02-27T07:35:17.542Z,0.72
2019-02-27T07:37:49.244Z,0.71
2019-02-27T07:40:20.937Z,0.77
2019-02-27T07:42:52.712Z,0.64
2019-02-27T07:45:24.355Z,0.74
2019-02-27T07:47:58.087Z,0.81
2019-02-27T07:50:32.697Z,0.90
2019-02-27T07:53:05.641Z,0.96
2019-02-27T07:55:37.714Z,1.03
2019-02-27T07:58:09.875Z,1.13
2019-02-27T08:00:47.161Z,1.18
2019-02-27T08:03:23.921Z,1.26
2019-02-27T08:05:56.062Z,1.42
2019-02-27T08:08:28.091Z,1.48
2019-02-27T08:11:00.273Z,1.64
2019-02-27T08:13:32.038Z,1.61
2019-02-27T08:16:03.984Z,1.73
2019-02-27T08:18:37.646Z,1.86
2019-02-27T08:21:10.052Z,1.98
2019-02-27T08:23:41.663Z,2.04
2019-02-27T08:26:13.330Z,2.08
2019-02-27T08:28:47.669Z,2.29
2019-02-27T08:31:19.727Z,2.37
2019-02-27T08:33:51.505Z,2.46
2019-02-27T08:36:23.347Z,2.66
2019-02-27T08:38:55.977Z,2.66
2019-02-27T08:41:29.188Z,2.68
2019-02-27T08:44:03.352Z,2.84
2019-02-27T08:46:37.093Z,2.90
2019-02-27T08:49:10.667Z,3.06
2019-02-27T08:51:43.006Z,3.16
2019-02-27T08:54:14.633Z,3.23
2019-02-27T08:56:47.247Z,3.37
2019-02-27T08:59:19.931Z,3.42
2019-02-27T09:01:55.711Z,3.51
2019-02-27T09:04:26.308Z,3.74
2019-02-27T09:07:02.167Z,3.91
2019-02-27T09:09:31.508Z,4.12
2019-02-27T09:12:03.241Z,4.30
2019-02-27T09:14:34.966Z,4.46
2019-02-27T09:17:06.623Z,4.44
2019-02-27T09:19:38.227Z,4.48
2019-02-27T09:22:09.914Z,4.65
2019-02-27T09:24:41.606Z,4.58
2019-02-27T09:27:13.214Z,4.27
2019-02-27T09:29:44.858Z,4.18
2019-02-27T09:32:16.474Z,4.19
2019-02-27T09:34:48.079Z,4.22
2019-02-27T09:37:19.682Z,4.15
2019-02-27T09:39:51.390Z,4.26
2019-02-27T09:42:23.075Z,4.37
2019-02-27T09:44:54.778Z,4.31
2019-02-27T09:47:26.515Z,4.26
2019-02-27T09:49:58.318Z,4.24
2019-02-27T09:52:30.756Z,4.16
2019-02-27T09:55:02.480Z,4.19
2019-02-27T09:57:35.346Z,4.34
2019-02-27T10:00:25.939Z,4.30
2019-02-27T10:02:55.959Z,4.39
2019-02-27T10:05:27.750Z,4.28
2019-02-27T10:08:00.336Z,4.29
2019-02-27T10:10:32.144Z,4.37
2019-02-27T10:13:04.158Z,4.26
2019-02-27T10:15:35.920Z,4.29
2019-02-27T10:18:07.742Z,4.38
2019-02-27T10:20:39.435Z,4.43
2019-02-27T10:23:11.086Z,4.45
2019-02-27T10:25:43.611Z,4.41
2019-02-27T10:28:15.896Z,4.43
2019-02-27T10:30:49.934Z,4.51
2019-02-27T10:33:20.886Z,4.55
2019-02-27T10:35:52.548Z,4.63
2019-02-27T10:38:26.109Z,4.73
2019-02-27T10:40:57.550Z,4.89
2019-02-27T10:43:29.241Z,4.86
2019-02-27T10:46:00.945Z,4.88
2019-02-27T10:48:32.609Z,4.89
2019-02-27T10:51:04.258Z,4.77
2019-02-27T10:53:35.948Z,4.81
2019-02-27T10:56:07.814Z,4.87
2019-02-27T10:58:39.693Z,5.07
2019-02-27T11:01:11.314Z,5.20
2019-02-27T11:03:42.994Z,5.30
2019-02-27T11:06:14.596Z,5.41
2019-02-27T11:08:46.412Z,5.43
2019-02-27T11:11:18.051Z,5.54
2019-02-27T11:13:52.115Z,5.69
2019-02-27T11:16:23.224Z,5.75
2019-02-27T11:18:55.115Z,5.92
2019-02-27T11:21:27.083Z,6.10
2019-02-27T11:23:59.002Z,6.05
2019-02-27T11:26:33.225Z,6.07
2019-02-27T11:29:04.046Z,6.20
2019-02-27T11:31:35.750Z,6.33
2019-02-27T11:34:07.861Z,6.22
2019-02-27T11:36:40.183Z,6.37
2019-02-27T11:39:11.866Z,6.45
2019-02-27T11:41:46.077Z,6.42
2019-02-27T11:44:17.156Z,6.45
2019-02-27T11:46:58.442Z,6.54
2019-02-27T11:49:22.088Z,6.54
2019-02-27T11:51:53.985Z,6.70
2019-02-27T11:54:25.894Z,6.71
2019-02-27T11:56:57.608Z,6.75
2019-02-27T11:59:29.329Z,7.01
2019-02-27T12:02:00.942Z,7.07
2019-02-27T12:04:32.612Z,6.99
2019-02-27T12:07:04.242Z,7.10
2019-02-27T12:09:35.937Z,7.31
2019-02-27T12:12:10.393Z,7.34
2019-02-27T12:14:41.868Z,7.46
2019-02-27T12:17:13.569Z,7.53
2019-02-27T12:19:45.343Z,7.67
2019-02-27T12:22:17.020Z,7.85
2019-02-27T12:24:50.345Z,7.89
2019-02-27T12:27:45.054Z,8.06
2019-02-27T12:29:55.485Z,8.17
2019-02-27T12:32:27.260Z,8.26
2019-02-27T12:34:59.281Z,8.41
2019-02-27T12:37:34.759Z,8.45
2019-02-27T12:40:06.035Z,8.41
2019-02-27T12:42:42.526Z,8.60
2019-02-27T12:45:13.780Z,8.63
2019-02-27T12:47:45.487Z,8.79
2019-02-27T12:50:18.890Z,8.86
2019-02-27T12:52:50.551Z,8.83
2019-02-27T12:55:22.180Z,8.89
2019-02-27T12:57:53.867Z,9.15
2019-02-27T13:00:27.535Z,9.17
2019-02-27T13:02:59.418Z,9.34
2019-02-27T13:05:31.138Z,9.43
2019-02-27T13:08:02.763Z,9.68
2019-02-27T13:10:34.445Z,9.74
2019-02-27T13:13:06.123Z,9.73
2019-02-27T13:15:38.316Z,9.82
2019-02-27T13:18:11.155Z,9.94
2019-02-27T13:20:43.066Z,9.97
2019-02-27T13:23:16.146Z,9.98
2019-02-27T13:25:47.752Z,10.08
2019-02-27T13:28:19.375Z,10.09
2019-02-27T13:30:51.015Z,10.26
2019-02-27T13:33:22.624Z,10.31
2019-02-27T13:35:56.706Z,10.42
2019-02-27T13:38:27.644Z,10.42
2019-02-27T13:40:59.335Z,10.49
2019-02-27T13:43:30.967Z,10.53
2019-02-27T13:46:02.603Z,10.60
2019-02-27T13:48:34.225Z,10.56
2019-02-27T13:51:05.894Z,10.70
2019-02-27T13:53:37.587Z,10.75
2019-02-27T13:56:09.388Z,10.72
2019-02-27T13:58:41.391Z,10.79
2019-02-27T14:01:16.373Z,10.92
2019-02-27T14:03:49.586Z,10.99
2019-02-27T14:06:21.546Z,10.92
2019-02-27T14:08:53.710Z,11.01
2019-02-27T14:11:26.265Z,11.15
2019-02-27T14:14:00.520Z,11.26
2019-02-27T14:16:34.733Z,11.36
2019-02-27T14:19:05.862Z,11.37
2019-02-27T14:21:39.633Z,11.44
2019-02-27T14:24:20.198Z,11.46
2019-02-27T14:26:49.604Z,11.42
2019-02-27T14:29:21.497Z,11.49
2019-02-27T14:31:53.233Z,11.62
2019-02-27T14:34:27.395Z,11.59
2019-02-27T14:36:58.566Z,11.71
2019-02-27T14:39:30.524Z,11.74
2019-02-27T14:42:02.414Z,11.73
2019-02-27T14:44:34.196Z,11.86
2019-02-27T14:47:06.016Z,11.89
2019-02-27T14:49:37.746Z,11.91
2019-02-27T14:52:14.003Z,12.00
2019-02-27T14:54:42.848Z,12.13
2019-02-27T14:57:16.067Z,12.20
2019-02-27T14:59:47.924Z,12.21
2019-02-27T15:02:22.172Z,12.22
2019-02-27T15:04:52.976Z,12.34
2019-02-27T15:07:24.808Z,12.39
2019-02-27T15:09:57.112Z,12.49
2019-02-27T15:12:30.258Z,12.52
2019-02-27T15:15:02.226Z,12.54
2019-02-27T15:17:35.704Z,12.50
2019-02-27T15:20:08.203Z,12.49
2019-02-27T15:22:40.472Z,12.46
2019-02-27T15:25:13.986Z,12.50
2019-02-27T15:27:45.950Z,12.47
2019-02-27T15:30:19.838Z,12.47
2019-02-27T15:32:51.862Z,12.51
2019-02-27T15:35:23.792Z,12.53
2019-02-27T15:37:55.904Z,12.47
2019-02-27T15:40:29.622Z,12.46
2019-02-27T15:43:11.025Z,12.39
2019-02-27T15:45:36.970Z,12.37
2019-02-27T15:48:08.746Z,12.33
2019-02-27T15:50:40.467Z,12.25
2019-02-27T15:53:15.005Z,12.30
2019-02-27T15:55:45.567Z,12.29
2019-02-27T15:58:17.331Z,12.22
2019-02-27T16:00:52.349Z,12.13
2019-02-27T16:03:23.004Z,12.09
2019-02-27T16:05:56.387Z,12.01
2019-02-27T16:08:29.138Z,11.91
2019-02-27T16:11:01.016Z,11.77
2019-02-27T16:13:34.681Z,11.68
2019-02-27T16:16:07.255Z,11.62
2019-02-27T16:18:39.359Z,11.54
2019-02-27T16:21:12.140Z,11.45
2019-02-27T16:23:43.962Z,11.33
2019-02-27T16:26:15.604Z,11.25
2019-02-27T16:28:48.965Z,11.16
2019-02-27T16:31:20.634Z,11.07
2019-02-27T16:33:52.268Z,11.03
2019-02-27T16:36:23.909Z,10.95
2019-02-27T16:38:58.346Z,10.90
2019-02-27T16:41:30.387Z,10.82
2019-02-27T16:44:02.506Z,10.79
2019-02-27T16:46:34.497Z,10.72
2019-02-27T16:49:09.841Z,10.72
2019-02-27T16:51:40.824Z,10.72
2019-02-27T16:54:12.655Z,10.62
2019-02-27T16:56:47.558Z,10.61
2019-02-27T16:59:19.312Z,10.60
2019-02-27T17:01:51.226Z,10.53
2019-02-27T17:04:23.435Z,10.51
2019-02-27T17:06:56.309Z,10.46
2019-02-27T17:09:28.472Z,10.44
2019-02-27T17:12:00.378Z,10.38
2019-02-27T17:14:32.444Z,10.35
2019-02-27T17:17:04.552Z,10.29
2019-02-27T17:19:37.393Z,10.25
2019-02-27T17:22:10.958Z,10.27
2019-02-27T17:24:43.490Z,10.24
2019-02-27T17:27:16.504Z,10.23
2019-02-27T17:29:48.538Z,10.21
2019-02-27T17:32:20.462Z,10.23
2019-02-27T17:34:52.199Z,10.20
2019-02-27T17:37:23.931Z,10.16
2019-02-27T17:39:55.666Z,10.13
2019-02-27T17:42:27.533Z,10.13
2019-02-27T17:45:00.493Z,10.07
2019-02-27T17:47:32.459Z,10.06
2019-02-27T17:50:04.473Z,10.03
2019-02-27T17:52:36.418Z,9.97
2019-02-27T17:55:09.573Z,9.93
2019-02-27T17:57:42.075Z,9.94
2019-02-27T18:00:16.830Z,9.90
2019-02-27T18:02:48.707Z,9.84
2019-02-27T18:05:22.379Z,9.82
2019-02-27T18:07:53.708Z,9.81
2019-02-27T18:10:25.649Z,9.76
2019-02-27T18:12:58.877Z,9.77
2019-02-27T18:15:30.831Z,9.71
2019-02-27T18:18:02.541Z,9.64
2019-02-27T18:20:34.289Z,9.67
2019-02-27T18:23:06.116Z,9.64
2019-02-27T18:25:41.164Z,9.64
2019-02-27T18:28:11.992Z,9.57
2019-02-27T18:30:44.038Z,9.59
2019-02-27T18:33:17.523Z,9.58
2019-02-27T18:35:51.589Z,9.60
2019-02-27T18:38:27.537Z,9.57
2019-02-27T18:40:57.071Z,9.61
2019-02-27T18:43:30.117Z,9.61
2019-02-27T18:46:02.596Z,9.56
2019-02-27T18:48:34.301Z,9.58
2019-02-27T18:51:06.132Z,9.57
2019-02-27T18:53:37.887Z,9.52
2019-02-27T18:56:15.306Z,9.50
2019-02-27T18:58:47.157Z,9.47
2019-02-27T19:01:19.641Z,9.46
2019-02-27T19:03:51.445Z,9.48
2019-02-27T19:06:23.136Z,9.41
2019-02-27T19:08:54.829Z,9.45
2019-02-27T19:11:26.649Z,9.41
2019-02-27T19:13:58.347Z,9.38
2019-02-27T19:16:29.971Z,9.34
2019-02-27T19:19:01.616Z,9.27
2019-02-27T19:21:34.646Z,9.24
2019-02-27T19:24:06.762Z,9.22
2019-02-27T19:26:38.488Z,9.16
2019-02-27T19:29:10.135Z,9.11
2019-02-27T19:31:41.772Z,9.09
2019-02-27T19:34:13.492Z,9.04
2019-02-27T19:36:45.111Z,9.01
2019-02-27T19:39:18.280Z,8.98
2019-02-27T19:41:50.277Z,8.98
2019-02-27T19:44:21.982Z,8.97
2019-02-27T19:46:53.890Z,8.94
2019-02-27T19:49:25.572Z,8.94
2019-02-27T19:51:57.208Z,8.92
2019-02-27T19:54:28.899Z,8.91
2019-02-27T19:57:00.667Z,8.86
2019-02-27T19:59:33.745Z,8.85
2019-02-27T20:02:05.371Z,8.80
2019-02-27T20:04:37.176Z,8.79
2019-02-27T20:07:08.830Z,8.75
2019-02-27T20:09:40.781Z,8.73
2019-02-27T20:12:12.810Z,8.69
2019-02-27T20:14:45.887Z,8.70
2019-02-27T20:17:19.530Z,8.67
2019-02-27T20:19:51.563Z,8.65
2019-02-27T20:22:23.175Z,8.59
2019-02-27T20:24:54.805Z,8.57
2019-02-27T20:27:26.906Z,8.55
2019-02-27T20:29:58.885Z,8.54
2019-02-27T20:32:31.298Z,8.52
2019-02-27T20:35:03.015Z,8.50
2019-02-27T20:37:37.116Z,8.52
2019-02-27T20:40:08.341Z,8.42
2019-02-27T20:42:40.144Z,8.39
2019-02-27T20:45:15.652Z,8.37
2019-02-27T20:47:47.356Z,8.31
2019-02-27T20:50:34.439Z,8.30
2019-02-27T20:52:58.412Z,8.31
2019-02-27T20:55:30.940Z,8.30
2019-02-27T20:58:03.421Z,8.26
2019-02-27T21:00:36.554Z,8.25
2019-02-27T21:03:09.936Z,8.11
2019-02-27T21:05:41.997Z,8.14
2019-02-27T21:08:13.765Z,8.11
2019-02-27T21:10:45.365Z,8.06
2019-02-27T21:13:16.990Z,8.01
2019-02-27T21:15:48.659Z,7.97
2019-02-27T21:18:20.270Z,7.83
2019-02-27T21:20:51.958Z,7.87
2019-02-27T21:23:23.630Z,7.77
2019-02-27T21:25:55.310Z,7.79
2019-02-27T21:28:27.118Z,7.74
2019-02-27T21:30:59.098Z,7.71
2019-02-27T21:33:30.970Z,7.65
2019-02-27T21:36:04.174Z,7.63
2019-02-27T21:38:36.813Z,7.62
2019-02-27T21:41:11.847Z,7.58
2019-02-27T21:43:41.903Z,7.57
2019-02-27T21:46:13.520Z,7.54
2019-02-27T21:48:45.120Z,7.55
2019-02-27T21:51:16.738Z,7.52
2019-02-27T21:53:48.382Z,7.50
2019-02-27T21:56:20.067Z,7.42
2019-02-27T21:58:51.763Z,7.46
2019-02-27T22:01:23.509Z,7.39
2019-02-27T22:03:55.112Z,7.36
2019-02-27T22:06:28.753Z,7.36
2019-02-27T22:09:00.375Z,7.34
2019-02-27T22:11:33.592Z,7.31
2019-02-27T22:14:05.311Z,7.25
2019-02-27T22:16:37.441Z,7.20
2019-02-27T22:19:09.544Z,7.14
2019-02-27T22:21:42.139Z,7.13
2019-02-27T22:24:13.731Z,7.13
2019-02-27T22:26:45.344Z,7.15
2019-02-27T22:29:16.939Z,7.12
2019-02-27T22:31:48.731Z,7.12
2019-02-27T22:34:20.335Z,7.10
2019-02-27T22:36:51.944Z,6.98
2019-02-27T22:39:23.573Z,6.86
2019-02-27T22:41:55.183Z,6.70
2019-02-27T22:44:29.243Z,6.60
2019-02-27T22:47:00.342Z,6.59
2019-02-27T22:49:32.877Z,6.54
2019-02-27T22:52:05.570Z,6.54
2019-02-27T22:54:37.171Z,6.53
2019-02-27T22:57:08.876Z,6.55
2019-02-27T22:59:40.487Z,6.54
2019-02-27T23:02:12.124Z,6.55
2019-02-27T23:04:43.788Z,6.59
2019-02-27T23:07:20.571Z,6.62
2019-02-27T23:09:50.430Z,6.56
2019-02-27T23:12:23.539Z,6.52
2019-02-27T23:14:55.148Z,6.48
2019-02-27T23:17:27.033Z,6.48
2019-02-27T23:19:58.702Z,6.54
2019-02-27T23:22:30.297Z,6.52
2019-02-27T23:25:01.883Z,6.50
2019-02-27T23:27:33.561Z,6.48
2019-02-27T23:30:05.614Z,6.41
2019-02-27T23:32:37.288Z,6.41
2019-02-27T23:35:08.978Z,6.40
2019-02-27T23:37:40.558Z,6.40
2019-02-27T23:40:17.155Z,6.42
2019-02-27T23:42:45.438Z,6.42
2019-02-27T23:45:17.089Z,6.42
2019-02-27T23:47:48.757Z,6.45
2019-02-27T23:50:20.353Z,6.46
2019-02-27T23:52:53.189Z,6.46
2019-02-27T23:55:25.505Z,6.42
2019-02-27T23:57:57.937Z,6.45
